sensor_id;sensor_type;location;lat;lon;timestamp;P1;durP1;ratioP1;P2;durP2;ratioP2
297;SDS011;133;49.626;9.680;2023-04-06T00:01:27;11.27;;;9.60;;
297;SDS011;133;49.626;9.680;2023-04-06T00:03:52;15.10;;;10.00;;
297;SDS011;133;49.626;9.680;2023-04-06T00:06:18;13.80;;;9.17;;
297;SDS011;133;49.626;9.680;2023-04-06T00:08:44;12.87;;;9.60;;
297;SDS011;133;49.626;9.680;2023-04-06T00:11:09;12.97;;;9.30;;
297;SDS011;133;49.626;9.680;2023-04-06T00:13:35;17.30;;;12.37;;
297;SDS011;133;49.626;9.680;2023-04-06T00:16:01;17.40;;;12.13;;
297;SDS011;133;49.626;9.680;2023-04-06T00:18:26;19.80;;;12.10;;
297;SDS011;133;49.626;9.680;2023-04-06T00:20:52;16.70;;;10.50;;
297;SDS011;133;49.626;9.680;2023-04-06T00:23:18;14.70;;;10.00;;
297;SDS011;133;49.626;9.680;2023-04-06T00:25:43;17.20;;;11.80;;
297;SDS011;133;49.626;9.680;2023-04-06T00:28:09;17.47;;;10.10;;
297;SDS011;133;49.626;9.680;2023-04-06T00:30:35;15.10;;;10.40;;
297;SDS011;133;49.626;9.680;2023-04-06T00:33:01;14.60;;;9.87;;
297;SDS011;133;49.626;9.680;2023-04-06T00:35:26;11.47;;;9.23;;
297;SDS011;133;49.626;9.680;2023-04-06T00:37:52;10.80;;;9.23;;
297;SDS011;133;49.626;9.680;2023-04-06T00:40:17;10.27;;;7.67;;
297;SDS011;133;49.626;9.680;2023-04-06T00:42:43;10.23;;;8.17;;
297;SDS011;133;49.626;9.680;2023-04-06T00:45:09;12.13;;;9.33;;
297;SDS011;133;49.626;9.680;2023-04-06T00:47:35;12.00;;;8.90;;
297;SDS011;133;49.626;9.680;2023-04-06T00:50:01;10.57;;;7.80;;
297;SDS011;133;49.626;9.680;2023-04-06T00:52:27;13.27;;;9.70;;
297;SDS011;133;49.626;9.680;2023-04-06T00:54:53;11.43;;;10.13;;
297;SDS011;133;49.626;9.680;2023-04-06T00:57:18;13.80;;;9.53;;
297;SDS011;133;49.626;9.680;2023-04-06T00:59:44;13.20;;;9.60;;
297;SDS011;133;49.626;9.680;2023-04-06T01:02:10;14.80;;;10.07;;
297;SDS011;133;49.626;9.680;2023-04-06T01:04:36;14.10;;;9.90;;
297;SDS011;133;49.626;9.680;2023-04-06T01:07:02;15.90;;;10.67;;
297;SDS011;133;49.626;9.680;2023-04-06T01:09:28;13.10;;;10.10;;
297;SDS011;133;49.626;9.680;2023-04-06T01:11:57;15.40;;;11.27;;
297;SDS011;133;49.626;9.680;2023-04-06T01:14:23;12.70;;;9.40;;
297;SDS011;133;49.626;9.680;2023-04-06T01:16:50;11.20;;;9.50;;
297;SDS011;133;49.626;9.680;2023-04-06T01:19:16;12.40;;;10.60;;
297;SDS011;133;49.626;9.680;2023-04-06T01:21:42;11.60;;;10.07;;
297;SDS011;133;49.626;9.680;2023-04-06T01:24:08;14.77;;;10.50;;
297;SDS011;133;49.626;9.680;2023-04-06T01:26:34;17.77;;;10.87;;
297;SDS011;133;49.626;9.680;2023-04-06T01:29:01;12.63;;;9.73;;
297;SDS011;133;49.626;9.680;2023-04-06T01:31:28;15.93;;;11.90;;
297;SDS011;133;49.626;9.680;2023-04-06T01:33:54;12.93;;;9.67;;
297;SDS011;133;49.626;9.680;2023-04-06T01:36:19;20.23;;;11.00;;
297;SDS011;133;49.626;9.680;2023-04-06T01:38:45;14.90;;;11.07;;
297;SDS011;133;49.626;9.680;2023-04-06T01:41:11;12.87;;;10.40;;
297;SDS011;133;49.626;9.680;2023-04-06T01:43:37;12.00;;;9.93;;
297;SDS011;133;49.626;9.680;2023-04-06T01:46:03;11.63;;;8.97;;
297;SDS011;133;49.626;9.680;2023-04-06T01:48:29;13.83;;;9.40;;
297;SDS011;133;49.626;9.680;2023-04-06T01:50:55;11.83;;;9.33;;
297;SDS011;133;49.626;9.680;2023-04-06T01:53:21;11.43;;;8.70;;
297;SDS011;133;49.626;9.680;2023-04-06T01:55:47;13.57;;;9.80;;
297;SDS011;133;49.626;9.680;2023-04-06T01:58:13;12.63;;;9.80;;
297;SDS011;133;49.626;9.680;2023-04-06T02:00:38;14.97;;;10.97;;
297;SDS011;133;49.626;9.680;2023-04-06T02:03:04;14.70;;;10.53;;
297;SDS011;133;49.626;9.680;2023-04-06T02:05:31;15.43;;;11.30;;
297;SDS011;133;49.626;9.680;2023-04-06T02:08:07;15.30;;;11.40;;
297;SDS011;133;49.626;9.680;2023-04-06T02:10:33;13.33;;;10.60;;
297;SDS011;133;49.626;9.680;2023-04-06T02:12:59;15.50;;;11.10;;
297;SDS011;133;49.626;9.680;2023-04-06T02:15:25;13.47;;;10.70;;
297;SDS011;133;49.626;9.680;2023-04-06T02:17:52;14.47;;;11.20;;
297;SDS011;133;49.626;9.680;2023-04-06T02:20:18;14.80;;;11.10;;
297;SDS011;133;49.626;9.680;2023-04-06T02:22:43;12.73;;;10.53;;
297;SDS011;133;49.626;9.680;2023-04-06T02:25:09;16.33;;;10.70;;
297;SDS011;133;49.626;9.680;2023-04-06T02:27:35;14.77;;;10.87;;
297;SDS011;133;49.626;9.680;2023-04-06T02:30:01;14.17;;;10.10;;
297;SDS011;133;49.626;9.680;2023-04-06T02:32:27;16.63;;;11.40;;
297;SDS011;133;49.626;9.680;2023-04-06T02:34:53;15.00;;;10.50;;
297;SDS011;133;49.626;9.680;2023-04-06T02:37:19;16.30;;;10.70;;
297;SDS011;133;49.626;9.680;2023-04-06T02:39:45;17.47;;;11.97;;
297;SDS011;133;49.626;9.680;2023-04-06T02:42:10;13.93;;;10.90;;
297;SDS011;133;49.626;9.680;2023-04-06T02:44:36;14.80;;;10.67;;
297;SDS011;133;49.626;9.680;2023-04-06T02:47:02;14.83;;;10.90;;
297;SDS011;133;49.626;9.680;2023-04-06T02:49:27;14.17;;;9.77;;
297;SDS011;133;49.626;9.680;2023-04-06T02:51:53;12.20;;;9.53;;
297;SDS011;133;49.626;9.680;2023-04-06T02:54:18;12.43;;;10.27;;
297;SDS011;133;49.626;9.680;2023-04-06T02:56:44;17.57;;;11.07;;
297;SDS011;133;49.626;9.680;2023-04-06T02:59:10;12.07;;;9.00;;
297;SDS011;133;49.626;9.680;2023-04-06T03:01:35;13.90;;;10.20;;
297;SDS011;133;49.626;9.680;2023-04-06T03:04:01;13.97;;;9.70;;
297;SDS011;133;49.626;9.680;2023-04-06T03:06:27;14.03;;;9.93;;
297;SDS011;133;49.626;9.680;2023-04-06T03:08:53;15.10;;;11.10;;
297;SDS011;133;49.626;9.680;2023-04-06T03:11:19;19.73;;;11.33;;
297;SDS011;133;49.626;9.680;2023-04-06T03:13:45;17.23;;;11.20;;
297;SDS011;133;49.626;9.680;2023-04-06T03:16:11;14.73;;;10.60;;
297;SDS011;133;49.626;9.680;2023-04-06T03:18:37;17.73;;;12.20;;
297;SDS011;133;49.626;9.680;2023-04-06T03:21:02;14.50;;;10.27;;
297;SDS011;133;49.626;9.680;2023-04-06T03:23:28;15.00;;;11.43;;
297;SDS011;133;49.626;9.680;2023-04-06T03:25:53;15.27;;;11.30;;
297;SDS011;133;49.626;9.680;2023-04-06T03:28:19;14.83;;;11.80;;
297;SDS011;133;49.626;9.680;2023-04-06T03:30:45;16.53;;;12.37;;
297;SDS011;133;49.626;9.680;2023-04-06T03:33:11;16.27;;;11.73;;
297;SDS011;133;49.626;9.680;2023-04-06T03:35:36;17.30;;;11.50;;
297;SDS011;133;49.626;9.680;2023-04-06T03:38:03;18.53;;;10.60;;
297;SDS011;133;49.626;9.680;2023-04-06T03:40:30;13.90;;;10.47;;
297;SDS011;133;49.626;9.680;2023-04-06T03:42:56;13.43;;;9.57;;
297;SDS011;133;49.626;9.680;2023-04-06T03:45:22;13.60;;;9.83;;
297;SDS011;133;49.626;9.680;2023-04-06T03:47:47;12.40;;;9.43;;
297;SDS011;133;49.626;9.680;2023-04-06T03:50:13;15.63;;;10.97;;
297;SDS011;133;49.626;9.680;2023-04-06T03:52:38;15.30;;;11.07;;
297;SDS011;133;49.626;9.680;2023-04-06T03:55:04;14.80;;;11.20;;
297;SDS011;133;49.626;9.680;2023-04-06T03:57:31;19.17;;;11.90;;
297;SDS011;133;49.626;9.680;2023-04-06T03:59:56;15.13;;;10.37;;
297;SDS011;133;49.626;9.680;2023-04-06T04:02:22;13.70;;;10.20;;
297;SDS011;133;49.626;9.680;2023-04-06T04:04:47;16.17;;;11.23;;
297;SDS011;133;49.626;9.680;2023-04-06T04:07:13;17.80;;;11.90;;
297;SDS011;133;49.626;9.680;2023-04-06T04:09:39;15.70;;;11.93;;
297;SDS011;133;49.626;9.680;2023-04-06T04:12:05;14.70;;;11.47;;
297;SDS011;133;49.626;9.680;2023-04-06T04:14:31;13.90;;;11.23;;
297;SDS011;133;49.626;9.680;2023-04-06T04:16:56;21.20;;;12.00;;
297;SDS011;133;49.626;9.680;2023-04-06T04:19:22;17.70;;;12.57;;
297;SDS011;133;49.626;9.680;2023-04-06T04:21:47;16.63;;;12.50;;
297;SDS011;133;49.626;9.680;2023-04-06T04:24:13;17.27;;;11.43;;
297;SDS011;133;49.626;9.680;2023-04-06T04:26:39;16.30;;;11.60;;
297;SDS011;133;49.626;9.680;2023-04-06T04:29:05;16.93;;;11.63;;
297;SDS011;133;49.626;9.680;2023-04-06T04:31:31;14.60;;;11.60;;
297;SDS011;133;49.626;9.680;2023-04-06T04:33:57;20.60;;;12.07;;
297;SDS011;133;49.626;9.680;2023-04-06T04:36:24;14.10;;;10.30;;
297;SDS011;133;49.626;9.680;2023-04-06T04:38:50;12.07;;;9.57;;
297;SDS011;133;49.626;9.680;2023-04-06T04:41:16;15.48;;;11.13;;
297;SDS011;133;49.626;9.680;2023-04-06T04:43:42;17.33;;;11.30;;
297;SDS011;133;49.626;9.680;2023-04-06T04:46:08;17.60;;;12.27;;
297;SDS011;133;49.626;9.680;2023-04-06T04:48:34;16.80;;;12.17;;
297;SDS011;133;49.626;9.680;2023-04-06T04:51:00;16.17;;;12.30;;
297;SDS011;133;49.626;9.680;2023-04-06T04:53:26;15.55;;;12.18;;
297;SDS011;133;49.626;9.680;2023-04-06T04:55:51;16.43;;;12.40;;
297;SDS011;133;49.626;9.680;2023-04-06T04:58:17;16.27;;;11.80;;
297;SDS011;133;49.626;9.680;2023-04-06T05:00:44;16.98;;;11.80;;
297;SDS011;133;49.626;9.680;2023-04-06T05:03:21;16.45;;;12.55;;
297;SDS011;133;49.626;9.680;2023-04-06T05:05:48;19.25;;;12.30;;
297;SDS011;133;49.626;9.680;2023-04-06T05:08:13;19.13;;;12.70;;
297;SDS011;133;49.626;9.680;2023-04-06T05:10:39;15.73;;;11.53;;
297;SDS011;133;49.626;9.680;2023-04-06T05:13:05;17.57;;;12.07;;
297;SDS011;133;49.626;9.680;2023-04-06T05:15:31;15.93;;;10.97;;
297;SDS011;133;49.626;9.680;2023-04-06T05:17:56;16.33;;;12.43;;
297;SDS011;133;49.626;9.680;2023-04-06T05:20:22;19.30;;;12.23;;
297;SDS011;133;49.626;9.680;2023-04-06T05:22:48;15.07;;;11.83;;
297;SDS011;133;49.626;9.680;2023-04-06T05:25:14;19.10;;;12.23;;
297;SDS011;133;49.626;9.680;2023-04-06T05:27:40;16.20;;;11.27;;
297;SDS011;133;49.626;9.680;2023-04-06T05:30:06;15.27;;;11.97;;
297;SDS011;133;49.626;9.680;2023-04-06T05:32:32;19.43;;;12.57;;
297;SDS011;133;49.626;9.680;2023-04-06T05:34:59;16.38;;;12.05;;
297;SDS011;133;49.626;9.680;2023-04-06T05:37:25;14.33;;;10.67;;
297;SDS011;133;49.626;9.680;2023-04-06T05:39:50;18.70;;;13.03;;
297;SDS011;133;49.626;9.680;2023-04-06T05:42:16;14.10;;;10.60;;
297;SDS011;133;49.626;9.680;2023-04-06T05:44:42;34.60;;;15.57;;
297;SDS011;133;49.626;9.680;2023-04-06T05:47:07;15.23;;;11.07;;
297;SDS011;133;49.626;9.680;2023-04-06T05:49:33;13.37;;;10.90;;
297;SDS011;133;49.626;9.680;2023-04-06T05:51:59;15.53;;;11.40;;
297;SDS011;133;49.626;9.680;2023-04-06T05:54:25;28.40;;;18.17;;
297;SDS011;133;49.626;9.680;2023-04-06T05:56:51;24.80;;;15.83;;
297;SDS011;133;49.626;9.680;2023-04-06T05:59:17;17.83;;;13.20;;
297;SDS011;133;49.626;9.680;2023-04-06T06:01:43;22.43;;;13.07;;
297;SDS011;133;49.626;9.680;2023-04-06T06:04:08;13.60;;;11.17;;
297;SDS011;133;49.626;9.680;2023-04-06T06:06:34;16.33;;;11.40;;
297;SDS011;133;49.626;9.680;2023-04-06T06:09:00;17.83;;;12.77;;
297;SDS011;133;49.626;9.680;2023-04-06T06:11:28;31.00;;;19.27;;
297;SDS011;133;49.626;9.680;2023-04-06T06:13:54;22.63;;;14.07;;
297;SDS011;133;49.626;9.680;2023-04-06T06:16:20;24.90;;;14.87;;
297;SDS011;133;49.626;9.680;2023-04-06T06:18:46;22.33;;;14.70;;
297;SDS011;133;49.626;9.680;2023-04-06T06:21:12;19.57;;;13.00;;
297;SDS011;133;49.626;9.680;2023-04-06T06:23:37;19.70;;;12.77;;
297;SDS011;133;49.626;9.680;2023-04-06T06:26:04;23.07;;;14.07;;
297;SDS011;133;49.626;9.680;2023-04-06T06:28:29;33.47;;;19.27;;
297;SDS011;133;49.626;9.680;2023-04-06T06:30:55;34.40;;;19.83;;
297;SDS011;133;49.626;9.680;2023-04-06T06:33:21;22.73;;;14.80;;
297;SDS011;133;49.626;9.680;2023-04-06T06:35:47;29.33;;;17.63;;
297;SDS011;133;49.626;9.680;2023-04-06T06:38:13;69.67;;;30.70;;
297;SDS011;133;49.626;9.680;2023-04-06T06:40:39;59.60;;;24.27;;
297;SDS011;133;49.626;9.680;2023-04-06T06:43:05;62.20;;;27.40;;
297;SDS011;133;49.626;9.680;2023-04-06T06:45:31;71.63;;;30.50;;
297;SDS011;133;49.626;9.680;2023-04-06T06:47:57;30.20;;;16.40;;
297;SDS011;133;49.626;9.680;2023-04-06T06:50:22;18.37;;;13.23;;
297;SDS011;133;49.626;9.680;2023-04-06T06:52:48;18.03;;;12.43;;
297;SDS011;133;49.626;9.680;2023-04-06T06:55:14;14.70;;;11.90;;
297;SDS011;133;49.626;9.680;2023-04-06T06:57:40;16.50;;;12.07;;
297;SDS011;133;49.626;9.680;2023-04-06T07:00:07;20.53;;;13.70;;
297;SDS011;133;49.626;9.680;2023-04-06T07:02:34;16.73;;;12.13;;
297;SDS011;133;49.626;9.680;2023-04-06T07:05:00;17.80;;;12.70;;
297;SDS011;133;49.626;9.680;2023-04-06T07:07:26;19.30;;;13.50;;
297;SDS011;133;49.626;9.680;2023-04-06T07:09:52;17.43;;;13.00;;
297;SDS011;133;49.626;9.680;2023-04-06T07:12:18;16.73;;;12.80;;
297;SDS011;133;49.626;9.680;2023-04-06T07:14:43;15.30;;;12.33;;
297;SDS011;133;49.626;9.680;2023-04-06T07:17:09;15.17;;;12.37;;
297;SDS011;133;49.626;9.680;2023-04-06T07:19:35;17.10;;;13.10;;
297;SDS011;133;49.626;9.680;2023-04-06T07:22:01;15.90;;;12.23;;
297;SDS011;133;49.626;9.680;2023-04-06T07:24:28;18.30;;;12.63;;
297;SDS011;133;49.626;9.680;2023-04-06T07:26:54;17.50;;;12.50;;
297;SDS011;133;49.626;9.680;2023-04-06T07:29:21;20.30;;;13.77;;
297;SDS011;133;49.626;9.680;2023-04-06T07:31:47;19.40;;;14.10;;
297;SDS011;133;49.626;9.680;2023-04-06T07:34:14;18.27;;;12.63;;
297;SDS011;133;49.626;9.680;2023-04-06T07:36:40;19.80;;;11.87;;
297;SDS011;133;49.626;9.680;2023-04-06T07:39:06;16.33;;;12.27;;
297;SDS011;133;49.626;9.680;2023-04-06T07:41:32;18.60;;;13.33;;
297;SDS011;133;49.626;9.680;2023-04-06T07:43:58;18.13;;;12.53;;
297;SDS011;133;49.626;9.680;2023-04-06T07:46:24;14.83;;;11.50;;
297;SDS011;133;49.626;9.680;2023-04-06T07:48:50;16.50;;;12.03;;
297;SDS011;133;49.626;9.680;2023-04-06T07:51:16;18.30;;;12.07;;
297;SDS011;133;49.626;9.680;2023-04-06T07:53:43;16.67;;;12.40;;
297;SDS011;133;49.626;9.680;2023-04-06T07:56:09;16.27;;;12.00;;
297;SDS011;133;49.626;9.680;2023-04-06T07:58:35;16.40;;;12.60;;
297;SDS011;133;49.626;9.680;2023-04-06T08:01:01;15.63;;;12.40;;
297;SDS011;133;49.626;9.680;2023-04-06T08:03:27;17.53;;;13.73;;
297;SDS011;133;49.626;9.680;2023-04-06T08:05:53;15.97;;;12.90;;
297;SDS011;133;49.626;9.680;2023-04-06T08:08:18;21.20;;;14.03;;
297;SDS011;133;49.626;9.680;2023-04-06T08:10:46;21.47;;;13.13;;
297;SDS011;133;49.626;9.680;2023-04-06T08:13:14;18.47;;;12.47;;
297;SDS011;133;49.626;9.680;2023-04-06T08:15:41;14.60;;;12.40;;
297;SDS011;133;49.626;9.680;2023-04-06T08:18:07;18.10;;;13.07;;
297;SDS011;133;49.626;9.680;2023-04-06T08:20:33;24.13;;;13.40;;
297;SDS011;133;49.626;9.680;2023-04-06T08:23:00;19.37;;;13.77;;
297;SDS011;133;49.626;9.680;2023-04-06T08:25:26;23.60;;;14.57;;
297;SDS011;133;49.626;9.680;2023-04-06T08:27:51;19.63;;;14.17;;
297;SDS011;133;49.626;9.680;2023-04-06T08:30:17;15.87;;;13.27;;
297;SDS011;133;49.626;9.680;2023-04-06T08:32:44;17.90;;;14.13;;
297;SDS011;133;49.626;9.680;2023-04-06T08:35:10;20.90;;;13.60;;
297;SDS011;133;49.626;9.680;2023-04-06T08:37:37;19.70;;;13.50;;
297;SDS011;133;49.626;9.680;2023-04-06T08:40:03;16.97;;;12.67;;
297;SDS011;133;49.626;9.680;2023-04-06T08:42:31;15.80;;;13.37;;
297;SDS011;133;49.626;9.680;2023-04-06T08:44:58;17.97;;;12.80;;
297;SDS011;133;49.626;9.680;2023-04-06T08:47:25;16.73;;;12.50;;
297;SDS011;133;49.626;9.680;2023-04-06T08:49:51;15.70;;;12.57;;
297;SDS011;133;49.626;9.680;2023-04-06T08:52:18;17.30;;;13.40;;
297;SDS011;133;49.626;9.680;2023-04-06T08:54:44;19.47;;;12.10;;
297;SDS011;133;49.626;9.680;2023-04-06T08:57:10;14.03;;;11.53;;
297;SDS011;133;49.626;9.680;2023-04-06T08:59:37;15.77;;;10.93;;
297;SDS011;133;49.626;9.680;2023-04-06T09:02:04;13.80;;;11.30;;
297;SDS011;133;49.626;9.680;2023-04-06T09:04:33;13.23;;;11.83;;
297;SDS011;133;49.626;9.680;2023-04-06T09:06:59;13.40;;;11.53;;
297;SDS011;133;49.626;9.680;2023-04-06T09:09:26;12.60;;;10.47;;
297;SDS011;133;49.626;9.680;2023-04-06T09:11:52;16.13;;;11.53;;
297;SDS011;133;49.626;9.680;2023-04-06T09:14:32;13.87;;;11.30;;
297;SDS011;133;49.626;9.680;2023-04-06T09:17:00;16.07;;;11.87;;
297;SDS011;133;49.626;9.680;2023-04-06T09:19:26;13.87;;;12.10;;
297;SDS011;133;49.626;9.680;2023-04-06T09:22:00;14.00;;;11.20;;
297;SDS011;133;49.626;9.680;2023-04-06T09:24:28;15.37;;;12.10;;
297;SDS011;133;49.626;9.680;2023-04-06T09:27:05;18.50;;;12.20;;
297;SDS011;133;49.626;9.680;2023-04-06T09:29:30;15.60;;;11.57;;
297;SDS011;133;49.626;9.680;2023-04-06T09:32:03;14.70;;;11.80;;
297;SDS011;133;49.626;9.680;2023-04-06T09:34:30;18.97;;;13.10;;
297;SDS011;133;49.626;9.680;2023-04-06T09:36:56;17.50;;;12.50;;
297;SDS011;133;49.626;9.680;2023-04-06T09:39:22;17.10;;;12.07;;
297;SDS011;133;49.626;9.680;2023-04-06T09:41:51;18.47;;;11.80;;
297;SDS011;133;49.626;9.680;2023-04-06T09:44:17;20.10;;;12.20;;
297;SDS011;133;49.626;9.680;2023-04-06T09:46:44;16.40;;;12.13;;
297;SDS011;133;49.626;9.680;2023-04-06T09:49:11;17.13;;;12.30;;
297;SDS011;133;49.626;9.680;2023-04-06T09:51:41;16.33;;;12.10;;
297;SDS011;133;49.626;9.680;2023-04-06T09:54:15;13.17;;;11.03;;
297;SDS011;133;49.626;9.680;2023-04-06T09:56:47;18.73;;;12.37;;
297;SDS011;133;49.626;9.680;2023-04-06T10:02:12;17.20;;;11.90;;
297;SDS011;133;49.626;9.680;2023-04-06T10:04:56;15.90;;;11.20;;
297;SDS011;133;49.626;9.680;2023-04-06T10:07:27;15.00;;;11.00;;
297;SDS011;133;49.626;9.680;2023-04-06T10:09:54;20.10;;;12.40;;
297;SDS011;133;49.626;9.680;2023-04-06T10:12:21;14.70;;;10.93;;
297;SDS011;133;49.626;9.680;2023-04-06T10:14:46;14.30;;;10.90;;
297;SDS011;133;49.626;9.680;2023-04-06T10:17:14;16.80;;;11.60;;
297;SDS011;133;49.626;9.680;2023-04-06T10:19:44;13.10;;;10.53;;
297;SDS011;133;49.626;9.680;2023-04-06T10:22:28;12.23;;;10.13;;
297;SDS011;133;49.626;9.680;2023-04-06T10:25:01;17.13;;;11.20;;
297;SDS011;133;49.626;9.680;2023-04-06T10:27:28;16.10;;;11.37;;
297;SDS011;133;49.626;9.680;2023-04-06T10:29:54;15.93;;;10.67;;
297;SDS011;133;49.626;9.680;2023-04-06T10:32:36;12.93;;;10.10;;
297;SDS011;133;49.626;9.680;2023-04-06T10:35:10;14.20;;;10.63;;
297;SDS011;133;49.626;9.680;2023-04-06T10:37:47;10.53;;;9.23;;
297;SDS011;133;49.626;9.680;2023-04-06T10:40:21;12.53;;;9.53;;
297;SDS011;133;49.626;9.680;2023-04-06T10:42:54;12.33;;;9.67;;
297;SDS011;133;49.626;9.680;2023-04-06T10:45:22;11.03;;;9.27;;
297;SDS011;133;49.626;9.680;2023-04-06T10:47:51;17.00;;;10.73;;
297;SDS011;133;49.626;9.680;2023-04-06T10:50:18;11.40;;;9.43;;
297;SDS011;133;49.626;9.680;2023-04-06T10:52:45;13.10;;;9.67;;
297;SDS011;133;49.626;9.680;2023-04-06T10:55:14;12.70;;;9.70;;
297;SDS011;133;49.626;9.680;2023-04-06T10:57:40;12.77;;;9.37;;
297;SDS011;133;49.626;9.680;2023-04-06T11:00:06;13.13;;;9.37;;
297;SDS011;133;49.626;9.680;2023-04-06T11:02:36;12.50;;;10.13;;
297;SDS011;133;49.626;9.680;2023-04-06T11:05:03;13.33;;;10.37;;
297;SDS011;133;49.626;9.680;2023-04-06T11:07:29;14.80;;;10.63;;
297;SDS011;133;49.626;9.680;2023-04-06T11:09:55;12.40;;;10.47;;
297;SDS011;133;49.626;9.680;2023-04-06T11:12:25;13.83;;;10.73;;
297;SDS011;133;49.626;9.680;2023-04-06T11:14:53;15.30;;;10.10;;
297;SDS011;133;49.626;9.680;2023-04-06T11:17:27;12.43;;;10.70;;
297;SDS011;133;49.626;9.680;2023-04-06T11:19:54;13.13;;;10.77;;
297;SDS011;133;49.626;9.680;2023-04-06T11:22:20;15.50;;;10.80;;
297;SDS011;133;49.626;9.680;2023-04-06T11:24:46;9.63;;;8.23;;
297;SDS011;133;49.626;9.680;2023-04-06T11:27:12;11.10;;;9.40;;
297;SDS011;133;49.626;9.680;2023-04-06T11:29:40;12.03;;;9.30;;
297;SDS011;133;49.626;9.680;2023-04-06T11:32:06;10.80;;;9.47;;
297;SDS011;133;49.626;9.680;2023-04-06T11:34:37;11.37;;;9.47;;
297;SDS011;133;49.626;9.680;2023-04-06T11:37:09;9.97;;;8.80;;
297;SDS011;133;49.626;9.680;2023-04-06T11:39:40;11.20;;;9.70;;
297;SDS011;133;49.626;9.680;2023-04-06T11:42:08;10.00;;;8.07;;
297;SDS011;133;49.626;9.680;2023-04-06T11:44:35;11.80;;;9.27;;
297;SDS011;133;49.626;9.680;2023-04-06T11:47:07;10.90;;;9.93;;
297;SDS011;133;49.626;9.680;2023-04-06T11:49:39;11.13;;;8.63;;
297;SDS011;133;49.626;9.680;2023-04-06T11:52:19;10.63;;;9.30;;
297;SDS011;133;49.626;9.680;2023-04-06T11:54:45;11.73;;;9.30;;
297;SDS011;133;49.626;9.680;2023-04-06T11:57:13;9.93;;;9.00;;
297;SDS011;133;49.626;9.680;2023-04-06T11:59:40;11.13;;;9.33;;
297;SDS011;133;49.626;9.680;2023-04-06T12:02:07;14.87;;;9.50;;
297;SDS011;133;49.626;9.680;2023-04-06T12:04:32;9.33;;;8.80;;
297;SDS011;133;49.626;9.680;2023-04-06T12:06:58;8.80;;;8.30;;
297;SDS011;133;49.626;9.680;2023-04-06T12:09:24;9.00;;;8.53;;
297;SDS011;133;49.626;9.680;2023-04-06T12:11:50;12.90;;;9.57;;
297;SDS011;133;49.626;9.680;2023-04-06T12:14:15;8.63;;;7.80;;
297;SDS011;133;49.626;9.680;2023-04-06T12:16:41;10.57;;;8.63;;
297;SDS011;133;49.626;9.680;2023-04-06T12:19:09;9.20;;;7.93;;
297;SDS011;133;49.626;9.680;2023-04-06T12:21:35;9.17;;;8.70;;
297;SDS011;133;49.626;9.680;2023-04-06T12:24:04;8.67;;;7.80;;
297;SDS011;133;49.626;9.680;2023-04-06T12:26:30;11.07;;;8.67;;
297;SDS011;133;49.626;9.680;2023-04-06T12:28:57;8.97;;;7.20;;
297;SDS011;133;49.626;9.680;2023-04-06T12:31:30;10.23;;;9.73;;
297;SDS011;133;49.626;9.680;2023-04-06T12:33:55;10.27;;;8.23;;
297;SDS011;133;49.626;9.680;2023-04-06T12:36:21;9.10;;;7.97;;
297;SDS011;133;49.626;9.680;2023-04-06T12:38:48;9.57;;;8.60;;
297;SDS011;133;49.626;9.680;2023-04-06T12:41:15;11.70;;;8.87;;
297;SDS011;133;49.626;9.680;2023-04-06T12:43:45;13.23;;;9.83;;
297;SDS011;133;49.626;9.680;2023-04-06T12:46:11;12.40;;;9.17;;
297;SDS011;133;49.626;9.680;2023-04-06T12:48:37;11.53;;;8.80;;
297;SDS011;133;49.626;9.680;2023-04-06T12:51:06;10.23;;;8.90;;
297;SDS011;133;49.626;9.680;2023-04-06T12:53:32;9.43;;;8.23;;
297;SDS011;133;49.626;9.680;2023-04-06T12:55:59;8.60;;;8.10;;
297;SDS011;133;49.626;9.680;2023-04-06T12:58:25;10.20;;;9.20;;
297;SDS011;133;49.626;9.680;2023-04-06T13:00:52;10.73;;;8.33;;
297;SDS011;133;49.626;9.680;2023-04-06T13:03:21;9.87;;;8.80;;
297;SDS011;133;49.626;9.680;2023-04-06T13:05:48;9.37;;;8.40;;
297;SDS011;133;49.626;9.680;2023-04-06T13:08:17;10.07;;;9.20;;
297;SDS011;133;49.626;9.680;2023-04-06T13:10:54;14.17;;;9.40;;
297;SDS011;133;49.626;9.680;2023-04-06T13:13:24;9.10;;;8.67;;
297;SDS011;133;49.626;9.680;2023-04-06T13:15:52;10.90;;;8.10;;
297;SDS011;133;49.626;9.680;2023-04-06T13:18:20;9.27;;;8.23;;
297;SDS011;133;49.626;9.680;2023-04-06T13:20:47;8.33;;;7.63;;
297;SDS011;133;49.626;9.680;2023-04-06T13:23:13;9.10;;;8.13;;
297;SDS011;133;49.626;9.680;2023-04-06T13:25:39;9.53;;;8.00;;
297;SDS011;133;49.626;9.680;2023-04-06T13:28:05;11.50;;;7.87;;
297;SDS011;133;49.626;9.680;2023-04-06T13:30:31;9.30;;;7.90;;
297;SDS011;133;49.626;9.680;2023-04-06T13:32:58;9.77;;;8.43;;
297;SDS011;133;49.626;9.680;2023-04-06T13:35:26;8.50;;;8.03;;
297;SDS011;133;49.626;9.680;2023-04-06T13:37:52;8.00;;;7.60;;
297;SDS011;133;49.626;9.680;2023-04-06T13:40:18;9.70;;;8.90;;
297;SDS011;133;49.626;9.680;2023-04-06T13:42:44;9.77;;;8.40;;
297;SDS011;133;49.626;9.680;2023-04-06T13:45:11;9.87;;;8.00;;
297;SDS011;133;49.626;9.680;2023-04-06T13:47:38;7.60;;;7.23;;
297;SDS011;133;49.626;9.680;2023-04-06T13:50:04;8.27;;;7.00;;
297;SDS011;133;49.626;9.680;2023-04-06T13:52:31;7.87;;;7.50;;
297;SDS011;133;49.626;9.680;2023-04-06T13:54:58;12.23;;;8.23;;
297;SDS011;133;49.626;9.680;2023-04-06T13:57:25;10.37;;;7.97;;
297;SDS011;133;49.626;9.680;2023-04-06T13:59:51;9.73;;;8.10;;
297;SDS011;133;49.626;9.680;2023-04-06T14:02:16;8.90;;;8.30;;
297;SDS011;133;49.626;9.680;2023-04-06T14:04:43;10.47;;;8.57;;
297;SDS011;133;49.626;9.680;2023-04-06T14:07:08;10.50;;;9.30;;
297;SDS011;133;49.626;9.680;2023-04-06T14:09:34;10.50;;;9.00;;
297;SDS011;133;49.626;9.680;2023-04-06T14:12:00;12.43;;;8.50;;
297;SDS011;133;49.626;9.680;2023-04-06T14:14:26;11.43;;;8.03;;
297;SDS011;133;49.626;9.680;2023-04-06T14:16:52;9.40;;;7.60;;
297;SDS011;133;49.626;9.680;2023-04-06T14:19:19;9.97;;;8.10;;
297;SDS011;133;49.626;9.680;2023-04-06T14:21:49;9.20;;;8.20;;
297;SDS011;133;49.626;9.680;2023-04-06T14:24:15;10.10;;;8.23;;
297;SDS011;133;49.626;9.680;2023-04-06T14:26:42;9.50;;;8.20;;
297;SDS011;133;49.626;9.680;2023-04-06T14:29:09;10.77;;;8.03;;
297;SDS011;133;49.626;9.680;2023-04-06T14:31:35;9.33;;;8.23;;
297;SDS011;133;49.626;9.680;2023-04-06T14:34:02;10.87;;;8.13;;
297;SDS011;133;49.626;9.680;2023-04-06T14:36:28;9.60;;;8.53;;
297;SDS011;133;49.626;9.680;2023-04-06T14:39:01;11.57;;;9.30;;
297;SDS011;133;49.626;9.680;2023-04-06T14:41:31;11.17;;;9.33;;
297;SDS011;133;49.626;9.680;2023-04-06T14:43:58;10.90;;;9.67;;
297;SDS011;133;49.626;9.680;2023-04-06T14:46:24;8.50;;;7.97;;
297;SDS011;133;49.626;9.680;2023-04-06T14:48:50;8.97;;;8.33;;
297;SDS011;133;49.626;9.680;2023-04-06T14:51:16;8.77;;;7.60;;
297;SDS011;133;49.626;9.680;2023-04-06T14:53:43;12.50;;;7.43;;
297;SDS011;133;49.626;9.680;2023-04-06T14:56:09;10.30;;;8.40;;
297;SDS011;133;49.626;9.680;2023-04-06T14:58:35;8.67;;;8.20;;
297;SDS011;133;49.626;9.680;2023-04-06T15:01:01;9.43;;;7.87;;
297;SDS011;133;49.626;9.680;2023-04-06T15:03:27;8.07;;;7.23;;
297;SDS011;133;49.626;9.680;2023-04-06T15:05:54;10.13;;;7.70;;
297;SDS011;133;49.626;9.680;2023-04-06T15:08:22;9.83;;;7.93;;
297;SDS011;133;49.626;9.680;2023-04-06T15:10:48;11.10;;;8.07;;
297;SDS011;133;49.626;9.680;2023-04-06T15:13:16;12.23;;;8.13;;
297;SDS011;133;49.626;9.680;2023-04-06T15:15:42;10.87;;;7.30;;
297;SDS011;133;49.626;9.680;2023-04-06T15:18:08;9.00;;;7.10;;
297;SDS011;133;49.626;9.680;2023-04-06T15:20:35;11.43;;;8.73;;
297;SDS011;133;49.626;9.680;2023-04-06T15:23:01;9.17;;;7.83;;